Time;durP1;ratioP1;P1;durP2;ratioP2;P2;SDS_P1;SDS_P2;PMS_P1;PMS_P2;Temp;Humidity;BMP_temperature;BMP_pressure;BME280_temperature;BME280_humidity;BME280_pressure;Samples;Min_cycle;Max_cycle;Signal;HPM_P1;HPM_P2
2022/11/05 00:11:11;;;;;;;;;;;;;;;16.74;48.43;100485.47;5045058;28;1061;-61
2022/11/05 00:19:08;;;;;;;;;;;;;;;15.75;47.68;100484.03;5057282;28;1163;-61
2022/11/05 00:27:02;;;;;;;;;;;;;;;16.20;48.99;100476.88;5057271;28;1096;-62
2022/11/05 00:29:28;;;;;;;;;;;;;;;15.90;48.45;100475.81;5039514;28;1183;-61
2022/11/05 00:31:54;;;;;;;;;;;;;;;15.87;47.73;100470.09;5057216;28;1195;-59
2022/11/05 00:34:19;;;;;;;;;;;;;;;15.76;47.51;100468.44;5056707;28;963;-61
2022/11/05 00:36:44;;;;;;;;;;;;;;;15.73;46.68;100475.28;5057376;28;1135;-61
2022/11/05 00:39:10;;;;;;;;;;;;;;;15.70;46.62;100481.31;5057085;28;1188;-61
2022/11/05 00:41:35;;;;;;;;;;;;;;;16.23;47.72;100481.00;5056627;28;1021;-59
2022/11/05 00:46:45;;;;;;;;;;;;;;;15.97;48.78;100472.81;5043573;28;1089;-62
2022/11/05 00:49:28;;;;;;;;;;;;;;;15.87;47.84;100472.84;5056927;28;1131;-61
2022/11/05 00:52:54;;;;;;;;;;;;;;;15.70;47.38;100476.66;5043675;28;1053;-60
2022/11/05 00:54:39;;;;;;;;;;;;;;;15.67;47.05;100477.22;5056483;28;1326;-62
2022/11/05 00:57:04;;;;;;;;;;;;;;;15.62;46.60;100479.13;5056112;28;1155;-61
2022/11/05 00:59:30;;;;;;;;;;;;;;;15.57;46.30;100474.44;5056820;28;1151;-61
2022/11/05 01:01:55;;;;;;;;;;;;;;;16.89;48.18;100488.16;5037695;28;1223;-60
2022/11/05 01:04:21;;;;;;;;;;;;;;;16.01;49.24;100486.81;5056604;28;1906;-61
2022/11/05 01:06:46;;;;;;;;;;;;;;;15.91;48.55;100488.44;5056767;28;1200;-62
2022/11/05 01:09:11;;;;;;;;;;;;;;;15.79;47.89;100487.91;5056426;28;1147;-62
2022/11/05 01:11:39;;;;;;;;;;;;;;;15.75;47.15;100489.53;5056697;28;1160;-59
2022/11/05 01:14:14;;;;;;;;;;;;;;;15.73;46.63;100484.31;5056235;28;1285;-62
2022/11/05 01:16:40;;;;;;;;;;;;;;;15.59;46.49;100480.50;5056367;28;1124;-61
2022/11/05 01:19:06;;;;;;;;;;;;;;;15.57;46.45;100468.97;5056314;28;1231;-62
2022/11/05 01:21:31;;;;;;;;;;;;;;;15.54;45.98;100480.47;5038107;28;893;-60
2022/11/05 01:23:57;;;;;;;;;;;;;;;15.54;45.94;100467.63;5056126;28;2002;-62
2022/11/05 01:26:22;;;;;;;;;;;;;;;16.58;47.80;100477.31;5056254;28;1131;-61
2022/11/05 01:28:51;;;;;;;;;;;;;;;15.94;48.25;100461.59;5056351;28;1123;-61
2022/11/05 01:31:17;;;;;;;;;;;;;;;15.76;47.54;100446.50;5056069;28;1171;-61
2022/11/05 01:33:42;;;;;;;;;;;;;;;16.69;48.26;100449.78;5055575;28;1116;-62
2022/11/05 01:36:08;;;;;;;;;;;;;;;16.06;49.12;100449.22;5056499;28;1187;-63
2022/11/05 01:38:33;;;;;;;;;;;;;;;15.92;48.10;100450.88;5056090;28;1131;-62
2022/11/05 01:40:58;;;;;;;;;;;;;;;15.76;47.75;100443.75;5055969;28;1199;-61
2022/11/05 01:43:24;;;;;;;;;;;;;;;15.67;47.33;100441.56;5056238;28;1894;-61
2022/11/05 01:45:50;;;;;;;;;;;;;;;15.66;46.62;100448.13;5055744;28;1163;-61
2022/11/05 01:48:16;;;;;;;;;;;;;;;16.28;47.85;100439.81;5038130;28;1148;-60
2022/11/05 01:50:46;;;;;;;;;;;;;;;16.34;49.03;100438.72;5056378;28;1271;-61
2022/11/05 01:53:16;;;;;;;;;;;;;;;16.05;48.30;100436.59;5055673;28;1167;-61
2022/11/05 01:55:43;;;;;;;;;;;;;;;15.82;47.80;100440.78;5055995;28;1202;-61
2022/11/05 01:58:09;;;;;;;;;;;;;;;15.80;46.92;100433.91;5037655;28;1156;-60
2022/11/05 02:00:34;;;;;;;;;;;;;;;15.66;47.00;100434.44;5056163;28;1167;-62
2022/11/05 02:03:00;;;;;;;;;;;;;;;15.69;46.29;100428.41;5056100;28;1972;-60
2022/11/05 02:05:25;;;;;;;;;;;;;;;15.62;46.16;100427.84;5055881;28;1140;-60
2022/11/05 02:07:50;;;;;;;;;;;;;;;15.51;46.18;100427.03;5056169;28;1152;-60
2022/11/05 02:10:16;;;;;;;;;;;;;;;15.56;46.03;100421.56;5055493;28;1092;-60
2022/11/05 02:12:43;;;;;;;;;;;;;;;15.77;46.73;100428.94;5057792;28;1119;-61
2022/11/05 02:15:10;;;;;;;;;;;;;;;16.20;48.30;100423.94;5059672;28;1271;-62
2022/11/05 02:17:38;;;;;;;;;;;;;;;15.90;48.11;100439.38;5041790;28;1219;-61
2022/11/05 02:20:22;;;;;;;;;;;;;;;15.94;47.82;100421.28;5059890;28;1073;-61
2022/11/05 02:22:50;;;;;;;;;;;;;;;16.26;48.68;100422.81;5059200;28;1913;-61
2022/11/05 02:25:51;;;;;;;;;;;;;;;15.90;48.42;100428.41;5058802;28;1128;-62
2022/11/05 02:28:19;;;;;;;;;;;;;;;15.77;47.63;100423.44;4967562;28;1376;-62
2022/11/05 02:30:47;;;;;;;;;;;;;;;15.73;46.77;100434.16;5043496;28;1131;-61
2022/11/05 02:33:16;;;;;;;;;;;;;;;15.75;46.33;100429.22;5059172;28;1151;-62
2022/11/05 02:35:45;;;;;;;;;;;;;;;15.65;46.28;100427.31;5041345;28;1319;-59
2022/11/05 02:38:33;;;;;;;;;;;;;;;15.62;46.18;100427.84;5041552;28;1097;-60
2022/11/05 02:41:02;;;;;;;;;;;;;;;15.53;46.12;100424.06;5050709;28;1240;-60
2022/11/05 02:43:40;;;;;;;;;;;;;;;16.23;47.27;100431.63;5059089;28;1910;-60
2022/11/05 02:46:14;;;;;;;;;;;;;;;16.12;48.50;100436.31;5058322;28;1163;-62
2022/11/05 02:48:42;;;;;;;;;;;;;;;15.86;48.07;100432.78;5059223;28;1132;-62
2022/11/05 02:51:17;;;;;;;;;;;;;;;15.77;47.42;100431.66;5041493;28;1156;-61
2022/11/05 02:53:42;;;;;;;;;;;;;;;15.78;46.50;100430.59;5058997;28;1258;-62
2022/11/05 02:56:09;;;;;;;;;;;;;;;15.57;46.52;100428.69;5059169;28;1116;-61
2022/11/05 02:58:34;;;;;;;;;;;;;;;15.59;46.35;100433.91;5040630;28;934;-61
2022/11/05 03:01:02;;;;;;;;;;;;;;;15.63;45.99;100423.22;5058319;28;1113;-62
2022/11/05 03:03:37;;;;;;;;;;;;;;;16.52;48.01;100428.19;5058989;28;1988;-62
2022/11/05 03:06:02;;;;;;;;;;;;;;;15.94;48.13;100426.75;5058835;28;1132;-61
2022/11/05 03:08:37;;;;;;;;;;;;;;;15.80;47.78;100428.44;5058669;28;1498;-61
2022/11/05 03:11:06;;;;;;;;;;;;;;;15.71;47.18;100431.69;5053489;28;934;-61
2022/11/05 03:13:33;;;;;;;;;;;;;;;15.68;46.64;100432.25;5040990;28;1112;-61
2022/11/05 03:16:01;;;;;;;;;;;;;;;15.99;47.14;100421.25;5057972;28;1195;-60
2022/11/05 03:18:49;;;;;;;;;;;;;;;16.48;48.24;100429.84;5040724;28;1147;-61
2022/11/05 03:21:22;;;;;;;;;;;;;;;15.90;48.17;100422.91;5045409;28;1305;-61
2022/11/05 03:23:58;;;;;;;;;;;;;;;15.86;47.28;100427.31;5039326;28;1905;-61
2022/11/05 03:26:34;;;;;;;;;;;;;;;15.71;46.99;100426.22;5027749;28;1133;-61
2022/11/05 03:29:05;;;;;;;;;;;;;;;15.69;46.27;100433.06;5058402;28;1182;-60
2022/11/05 03:31:30;;;;;;;;;;;;;;;15.61;46.14;100420.72;5040330;28;1211;-61
2022/11/05 03:33:56;;;;;;;;;;;;;;;15.68;45.62;100424.03;5039853;28;1132;-62
2022/11/05 03:36:42;;;;;;;;;;;;;;;16.54;47.87;100436.97;5040229;28;1153;-61
2022/11/05 03:39:08;;;;;;;;;;;;;;;15.98;48.22;100421.53;5057380;28;1261;-62
2022/11/05 03:41:33;;;;;;;;;;;;;;;15.85;47.26;100425.66;5040347;28;1298;-59
2022/11/05 03:43:59;;;;;;;;;;;;;;;15.68;46.73;100418.56;5040407;28;1906;-61
2022/11/05 03:46:35;;;;;;;;;;;;;;;15.60;46.61;100416.38;5039479;28;1195;-60
2022/11/05 03:49:01;;;;;;;;;;;;;;;15.64;45.90;100413.88;5040118;28;1100;-59
2022/11/05 03:51:46;;;;;;;;;;;;;;;15.74;46.61;100411.94;5040404;28;1235;-59
2022/11/05 03:54:11;;;;;;;;;;;;;;;16.48;48.18;100406.00;5057762;28;1144;-59
2022/11/05 03:56:43;;;;;;;;;;;;;;;15.91;47.99;100391.66;5057571;28;1159;-60
2022/11/05 03:59:08;;;;;;;;;;;;;;;15.77;47.70;100399.63;5057245;28;914;-58
2022/11/05 04:01:35;;;;;;;;;;;;;;;15.70;46.95;100399.91;5057566;28;1065;-58
2022/11/05 04:04:00;;;;;;;;;;;;;;;15.63;46.57;100402.09;5057525;28;1909;-58
2022/11/05 04:14:38;;;;;;;;;;;;;;;15.87;48.15;100404.28;5045970;28;1140;-60
2022/11/05 04:17:07;;;;;;;;;;;;;;;16.66;48.67;100414.69;5056143;28;1143;-58
2022/11/05 04:25:01;;;;;;;;;;;;;;;18.26;49.15;100416.94;5057090;28;1120;-59
2022/11/05 04:27:27;;;;;;;;;;;;;;;17.02;50.39;100415.31;5056859;28;1120;-59
2022/11/05 04:32:36;;;;;;;;;;;;;;;17.78;50.24;100426.78;5056902;28;1135;-59
2022/11/05 04:35:01;;;;;;;;;;;;;;;17.04;50.69;100420.50;5056540;28;1041;-56
2022/11/05 04:37:27;;;;;;;;;;;;;;;16.75;49.23;100424.78;5056728;28;2016;-58
2022/11/05 04:39:52;;;;;;;;;;;;;;;16.68;49.00;100416.03;5056603;28;1183;-55
2022/11/05 04:42:18;;;;;;;;;;;;;;;16.54;48.14;100412.28;5056467;28;1910;-57
2022/11/05 04:44:43;;;;;;;;;;;;;;;16.43;47.40;100426.03;5056673;28;1194;-59
2022/11/05 04:47:09;;;;;;;;;;;;;;;16.45;47.57;100411.22;5056594;28;1155;-58
2022/11/05 04:49:34;;;;;;;;;;;;;;;16.43;48.22;100420.53;5056869;28;1159;-59
2022/11/05 04:51:59;;;;;;;;;;;;;;;16.47;48.19;100420.00;5056187;28;1158;-60
2022/11/05 04:54:25;;;;;;;;;;;;;;;16.42;47.92;100415.34;5056789;28;1111;-61
2022/11/05 04:56:50;;;;;;;;;;;;;;;16.33;48.14;100417.84;5056275;28;1286;-60
2022/11/05 04:59:16;;;;;;;;;;;;;;;16.37;48.47;100416.19;5056109;28;1151;-61
2022/11/05 05:01:41;;;;;;;;;;;;;;;16.23;48.10;100412.41;5055508;28;1093;-61
2022/11/05 05:04:08;;;;;;;;;;;;;;;16.19;47.09;100414.06;5056241;28;2000;-65
2022/11/05 05:06:33;;;;;;;;;;;;;;;16.13;46.68;100420.66;5054809;28;1068;-61
2022/11/05 05:08:58;;;;;;;;;;;;;;;16.09;46.52;100420.41;5061552;28;2036;-60
2022/11/05 05:11:24;;;;;;;;;;;;;;;15.91;46.53;100419.09;5055348;28;1226;-60
2022/11/05 05:13:49;;;;;;;;;;;;;;;15.99;46.02;100420.41;5055503;28;1128;-60
2022/11/05 05:16:19;;;;;;;;;;;;;;;15.95;46.54;100433.03;5036693;28;2452;-59
2022/11/05 05:18:45;;;;;;;;;;;;;;;15.90;46.41;100428.41;5055112;28;1167;-61
2022/11/05 05:23:54;;;;;;;;;;;;;;;15.81;45.77;100430.91;5048646;28;1973;-60
2022/11/05 05:26:20;;;;;;;;;;;;;;;15.78;45.72;100433.31;5055920;28;1144;-60
2022/11/05 05:28:45;;;;;;;;;;;;;;;15.67;45.45;100433.34;5056024;28;1092;-59
2022/11/05 05:31:10;;;;;;;;;;;;;;;15.83;45.90;100436.09;5055857;28;1135;-61
2022/11/05 05:33:36;;;;;;;;;;;;;;;16.84;48.52;100435.16;5055531;28;1171;-60
2022/11/05 05:36:01;;;;;;;;;;;;;;;16.13;48.88;100432.47;5037408;28;908;-60
2022/11/05 05:38:28;;;;;;;;;;;;;;;16.12;48.47;100446.44;5067815;28;1911;-60
2022/11/05 05:40:55;;;;;;;;;;;;;;;16.08;48.41;100441.50;5055523;28;1225;-57
2022/11/05 05:43:21;;;;;;;;;;;;;;;15.99;47.91;100451.44;5055476;28;1969;-58
2022/11/05 05:45:46;;;;;;;;;;;;;;;16.55;49.58;100455.06;5055195;28;1076;-59
2022/11/05 05:48:11;;;;;;;;;;;;;;;16.34;49.24;100454.34;5058413;28;851;-59
2022/11/05 05:50:37;;;;;;;;;;;;;;;16.13;49.15;100464.53;5059932;28;1163;-60
2022/11/05 05:53:05;;;;;;;;;;;;;;;16.02;48.14;100464.59;5059252;28;1076;-58
2022/11/05 05:55:31;;;;;;;;;;;;;;;15.91;47.34;100458.28;5059549;28;1288;-57
2022/11/05 05:57:56;;;;;;;;;;;;;;;16.16;47.65;100458.50;5059583;28;1219;-59
2022/11/05 06:00:22;;;;;;;;;;;;;;;15.91;48.83;100462.97;5058890;28;1203;-60
2022/11/05 06:02:47;;;;;;;;;;;;;;;16.01;48.31;100468.41;5059683;28;1971;-62
2022/11/05 06:05:12;;;;;;;;;;;;;;;15.96;48.11;100468.41;5059545;28;1096;-57
2022/11/05 06:07:38;;;;;;;;;;;;;;;17.00;50.08;100477.13;5065585;28;1786;-56
2022/11/05 06:10:04;;;;;;;;;;;;;;;16.48;50.13;100476.50;5067079;28;1214;-57
2022/11/05 06:12:29;;;;;;;;;;;;;;;16.22;49.39;100484.84;5058983;28;1279;-58
2022/11/05 06:14:54;;;;;;;;;;;;;;;16.16;48.58;100475.78;5059253;28;1210;-56
2022/11/05 06:17:20;;;;;;;;;;;;;;;16.15;48.04;100479.63;5059581;28;1202;-60
2022/11/05 06:19:46;;;;;;;;;;;;;;;16.02;48.40;100492.00;5059269;28;1152;-59
2022/11/05 06:22:12;;;;;;;;;;;;;;;16.10;47.94;100492.53;5059139;28;1148;-59
2022/11/05 06:24:37;;;;;;;;;;;;;;;16.08;47.96;100496.38;5058720;28;1909;-60
2022/11/05 06:27:03;;;;;;;;;;;;;;;16.04;47.46;100487.06;5058791;28;1139;-59
2022/11/05 06:29:28;;;;;;;;;;;;;;;15.98;47.10;100490.91;5058787;28;1227;-60
2022/11/05 06:31:53;;;;;;;;;;;;;;;16.02;46.89;100494.75;5059027;28;1143;-59
2022/11/05 06:34:19;;;;;;;;;;;;;;;16.98;46.47;100491.13;5058634;28;1147;-58
2022/11/05 06:36:44;;;;;;;;;;;;;;;16.58;47.97;100495.72;5058766;28;919;-58
2022/11/05 06:39:10;;;;;;;;;;;;;;;16.32;49.13;100494.97;5040696;28;2312;-60
2022/11/05 06:41:35;;;;;;;;;;;;;;;16.16;49.82;100494.16;5058768;28;1120;-58
2022/11/05 06:44:01;;;;;;;;;;;;;;;16.07;50.33;100496.66;5058379;28;1914;-57
2022/11/05 06:46:26;;;;;;;;;;;;;;;15.95;50.68;100496.13;5058560;28;1182;-56
2022/11/05 06:48:52;;;;;;;;;;;;;;;17.02;48.57;100496.91;5058052;28;961;-57
2022/11/05 06:51:18;;;;;;;;;;;;;;;16.80;49.06;100494.50;5058640;28;1092;-59
2022/11/05 06:53:43;;;;;;;;;;;;;;;16.35;50.93;100483.41;5058545;28;1139;-57
2022/11/05 06:56:09;;;;;;;;;;;;;;;16.09;51.90;100478.00;5058793;28;1152;-60
2022/11/05 06:58:34;;;;;;;;;;;;;;;16.01;51.99;100490.34;5057566;28;1088;-62
2022/11/05 07:01:03;;;;;;;;;;;;;;;15.91;52.55;100487.63;5058193;28;1185;-61
2022/11/05 07:03:28;;;;;;;;;;;;;;;16.17;52.16;100484.84;5057764;28;1909;-58
2022/11/05 07:05:55;;;;;;;;;;;;;;;17.61;48.38;100489.63;5058346;28;1116;-61
2022/11/05 07:08:20;;;;;;;;;;;;;;;16.70;50.62;100489.88;5058220;28;1903;-61
2022/11/05 07:10:45;;;;;;;;;;;;;;;16.31;52.10;100483.16;5058151;28;1148;-63
2022/11/05 07:13:11;;;;;;;;;;;;;;;16.11;52.32;100488.69;5057922;28;885;-64
2022/11/05 07:15:36;;;;;;;;;;;;;;;16.00;52.75;100488.69;5057977;28;1210;-62
2022/11/05 07:18:02;;;;;;;;;;;;;;;15.90;53.03;100477.75;5057937;28;1151;-62
2022/11/05 07:20:27;;;;;;;;;;;;;;;15.86;53.21;100482.97;5057722;28;1135;-62
2022/11/05 07:23:02;;;;;;;;;;;;;;;17.38;49.87;100474.69;5058116;28;1977;-62
2022/11/05 07:25:28;;;;;;;;;;;;;;;16.90;50.83;100481.59;5057005;28;923;-64
2022/11/05 07:27:54;;;;;;;;;;;;;;;16.43;52.37;100480.91;5057985;28;1175;-62
2022/11/05 07:30:19;;;;;;;;;;;;;;;16.20;52.97;100487.03;5057958;28;1097;-62
2022/11/05 07:32:44;;;;;;;;;;;;;;;16.10;53.16;100476.09;5057508;28;1135;-63
2022/11/05 07:35:10;;;;;;;;;;;;;;;16.00;53.70;100480.47;5057488;28;1127;-62
2022/11/05 07:37:45;;;;;;;;;;;;;;;17.38;50.51;100482.94;5056992;28;2084;-63
2022/11/05 07:40:11;;;;;;;;;;;;;;;16.95;51.40;100479.91;5057648;28;1158;-63
2022/11/05 07:42:36;;;;;;;;;;;;;;;16.51;52.59;100470.47;5057397;28;1910;-62
2022/11/05 07:45:02;;;;;;;;;;;;;;;16.31;53.37;100466.69;5057186;28;1128;-63
2022/11/05 07:47:27;;;;;;;;;;;;;;;16.15;53.48;100476.09;5057402;28;1111;-62
2022/11/05 07:49:53;;;;;;;;;;;;;;;16.08;53.79;100479.09;5057277;28;1069;-62
2022/11/05 07:52:18;;;;;;;;;;;;;;;15.98;53.86;100479.94;5057697;28;1139;-62
2022/11/05 07:54:43;;;;;;;;;;;;;;;15.91;54.04;100473.94;5057383;28;1191;-62
2022/11/05 07:57:09;;;;;;;;;;;;;;;17.46;50.72;100482.34;5057393;28;1241;-61
2022/11/05 07:59:34;;;;;;;;;;;;;;;16.96;51.73;100482.38;5057022;28;1136;-63
2022/11/05 08:02:00;;;;;;;;;;;;;;;16.52;53.08;100483.09;5057057;28;1477;-63
2022/11/05 08:04:25;;;;;;;;;;;;;;;16.30;53.81;100481.53;5056828;28;1906;-62
2022/11/05 08:06:51;;;;;;;;;;;;;;;16.13;53.95;100481.00;5056950;28;1163;-61
2022/11/05 08:09:16;;;;;;;;;;;;;;;16.05;54.26;100480.47;5056742;28;2181;-62
2022/11/05 08:11:41;;;;;;;;;;;;;;;15.97;54.56;100474.75;5056815;28;1214;-63
2022/11/05 08:14:07;;;;;;;;;;;;;;;15.90;54.61;100472.28;5056893;28;1080;-62
2022/11/05 08:16:32;;;;;;;;;;;;;;;16.90;52.67;100473.34;5057017;28;1104;-62
2022/11/05 08:18:58;;;;;;;;;;;;;;;17.46;50.86;100471.34;5056691;28;1219;-62
2022/11/05 08:21:23;;;;;;;;;;;;;;;16.65;53.26;100473.41;5056986;28;1120;-62
2022/11/05 08:23:48;;;;;;;;;;;;;;;16.45;54.05;100472.41;5056523;28;1914;-61
2022/11/05 08:26:14;;;;;;;;;;;;;;;16.30;54.47;100465.06;5056781;28;1116;-61
2022/11/05 08:28:39;;;;;;;;;;;;;;;16.14;54.89;100474.44;5056634;28;1151;-60
2022/11/05 08:31:05;;;;;;;;;;;;;;;16.05;54.89;100472.25;5056882;28;1080;-64
2022/11/05 08:33:30;;;;;;;;;;;;;;;16.15;55.27;100465.09;5056755;28;1128;-63
2022/11/05 08:35:55;;;;;;;;;;;;;;;17.03;54.19;100476.56;5056297;28;1101;-61
2022/11/05 08:38:21;;;;;;;;;;;;;;;17.57;53.08;100469.31;5061123;28;2109;-60
2022/11/05 08:40:52;;;;;;;;;;;;;;;16.81;55.16;100471.44;5056682;28;1131;-61
2022/11/05 08:43:18;;;;;;;;;;;;;;;16.49;55.73;100468.00;5042672;28;1971;-61
2022/11/05 08:45:43;;;;;;;;;;;;;;;16.46;55.82;100474.06;5056057;28;1124;-62
2022/11/05 08:48:10;;;;;;;;;;;;;;;16.36;55.74;100469.41;5056126;28;1155;-63
2022/11/05 08:50:36;;;;;;;;;;;;;;;16.19;55.82;100469.75;5056054;28;1191;-62
2022/11/05 08:53:01;;;;;;;;;;;;;;;16.12;56.03;100466.47;5055955;28;1215;-64
2022/11/05 08:55:27;;;;;;;;;;;;;;;16.03;56.21;100460.75;5056588;28;1096;-62
2022/11/05 08:57:58;;;;;;;;;;;;;;;15.96;55.99;100460.19;5056051;28;1168;-61
2022/11/05 09:00:24;;;;;;;;;;;;;;;16.06;56.24;100462.94;5055672;28;1100;-62
2022/11/05 09:02:50;;;;;;;;;;;;;;;17.59;53.55;100467.91;5056090;28;1973;-63
2022/11/05 09:05:15;;;;;;;;;;;;;;;16.97;55.21;100466.72;5055836;28;1104;-61
2022/11/05 09:07:40;;;;;;;;;;;;;;;16.51;56.06;100463.06;5055859;28;2379;-60
2022/11/05 09:10:06;;;;;;;;;;;;;;;16.52;56.14;100463.88;5056254;28;1286;-63
2022/11/05 09:12:32;;;;;;;;;;;;;;;16.42;56.29;100465.56;5055380;28;1124;-63
2022/11/05 09:14:57;;;;;;;;;;;;;;;16.33;56.25;100458.19;5055885;28;1112;-63
2022/11/05 09:17:22;;;;;;;;;;;;;;;16.28;56.38;100455.47;5055608;28;1179;-60
2022/11/05 09:19:48;;;;;;;;;;;;;;;16.10;56.81;100454.94;5055616;28;1156;-60
2022/11/05 09:22:13;;;;;;;;;;;;;;;16.04;56.53;100458.81;5055139;28;1116;-60
2022/11/05 09:24:39;;;;;;;;;;;;;;;15.94;56.37;100462.41;5055829;28;2100;-60
2022/11/05 09:27:05;;;;;;;;;;;;;;;15.98;56.45;100460.75;5055673;28;1191;-59
2022/11/05 09:29:30;;;;;;;;;;;;;;;17.47;54.31;100452.91;5055301;28;1187;-59
2022/11/05 09:31:55;;;;;;;;;;;;;;;16.85;55.95;100458.78;5055823;28;1187;-61
2022/11/05 09:34:21;;;;;;;;;;;;;;;16.43;56.57;100463.66;5055602;28;1116;-61
2022/11/05 09:36:47;;;;;;;;;;;;;;;16.39;56.42;100457.06;5037874;28;1219;-58
2022/11/05 09:39:12;;;;;;;;;;;;;;;16.26;56.47;100450.25;5069533;28;1848;-60
2022/11/05 09:41:38;;;;;;;;;;;;;;;16.20;56.56;100440.38;5055454;28;1088;-60
2022/11/05 09:44:13;;;;;;;;;;;;;;;16.36;56.86;100447.47;5055295;28;1910;-57
2022/11/05 09:46:46;;;;;;;;;;;;;;;17.84;53.87;100445.97;5055270;28;1127;-62
2022/11/05 09:49:30;;;;;;;;;;;;;;;17.03;55.80;100440.88;5037540;28;1225;-61
2022/11/05 09:51:56;;;;;;;;;;;;;;;16.65;56.60;100438.56;5055510;28;1092;-61
2022/11/05 09:54:22;;;;;;;;;;;;;;;16.43;57.00;100433.47;5055592;28;1179;-60
2022/11/05 09:56:48;;;;;;;;;;;;;;;16.28;56.92;100439.00;5055462;28;1092;-62
2022/11/05 09:59:52;;;;;;;;;;;;;;;16.27;56.56;100437.34;5037795;28;1156;-62
2022/11/05 10:02:19;;;;;;;;;;;;;;;16.15;56.71;100434.94;4954538;29;1484;-60
2022/11/05 10:04:45;;;;;;;;;;;;;;;16.06;56.74;100435.50;4939130;29;1974;-61
2022/11/05 10:07:12;;;;;;;;;;;;;;;15.98;56.42;100441.56;4985403;28;1918;-60
2022/11/05 10:09:47;;;;;;;;;;;;;;;16.48;56.48;100435.34;5037872;28;1120;-61
2022/11/05 10:12:16;;;;;;;;;;;;;;;17.64;54.36;100436.78;5037624;28;1167;-60
2022/11/05 10:14:43;;;;;;;;;;;;;;;16.75;56.62;100427.53;5055126;28;932;-61
2022/11/05 10:17:11;;;;;;;;;;;;;;;16.45;56.92;100428.50;5055403;28;1096;-60
2022/11/05 10:19:47;;;;;;;;;;;;;;;16.31;57.05;100433.75;5037254;28;1113;-60
2022/11/05 10:22:15;;;;;;;;;;;;;;;16.19;56.99;100430.53;5037445;28;1101;-60
2022/11/05 10:24:41;;;;;;;;;;;;;;;16.10;56.65;100432.19;5055236;28;1983;-60
2022/11/05 10:27:06;;;;;;;;;;;;;;;16.16;56.56;100433.81;5037448;28;1191;-61
2022/11/05 10:29:33;;;;;;;;;;;;;;;16.02;56.84;100437.16;5037432;28;1168;-60
2022/11/05 10:31:59;;;;;;;;;;;;;;;16.18;56.83;100428.88;5054932;28;1206;-59
2022/11/05 10:34:25;;;;;;;;;;;;;;;17.73;54.79;100435.06;5040656;28;1147;-60
2022/11/05 10:36:50;;;;;;;;;;;;;;;17.11;56.43;100432.03;5040873;28;1124;-60
2022/11/05 10:39:17;;;;;;;;;;;;;;;16.60;57.30;100435.84;5040890;28;2702;-60
2022/11/05 10:41:51;;;;;;;;;;;;;;;16.40;57.25;100432.09;5058443;28;1187;-61
2022/11/05 10:44:22;;;;;;;;;;;;;;;16.35;56.90;100429.34;5040839;28;1886;-62
2022/11/05 10:46:57;;;;;;;;;;;;;;;16.19;56.82;100425.03;5058359;28;1124;-62
2022/11/05 10:49:26;;;;;;;;;;;;;;;16.12;56.97;100424.50;5058261;28;1132;-61
2022/11/05 10:51:52;;;;;;;;;;;;;;;16.03;56.69;100416.03;5058878;28;1139;-58
2022/11/05 10:54:18;;;;;;;;;;;;;;;15.97;56.90;100423.44;5058349;28;1175;-61
2022/11/05 10:56:44;;;;;;;;;;;;;;;15.89;56.57;100415.78;5040557;28;1211;-62
2022/11/05 10:59:18;;;;;;;;;;;;;;;15.87;56.65;100413.31;5058434;28;1124;-62
2022/11/05 11:01:44;;;;;;;;;;;;;;;16.69;56.50;100416.84;5057406;28;1211;-60
2022/11/05 11:04:19;;;;;;;;;;;;;;;17.88;54.71;100414.00;5040367;28;1909;-59
2022/11/05 11:06:49;;;;;;;;;;;;;;;17.12;56.89;100419.09;5058235;28;1068;-58
2022/11/05 11:09:21;;;;;;;;;;;;;;;16.90;57.75;100412.09;5040446;28;2293;-59
2022/11/05 11:11:46;;;;;;;;;;;;;;;16.68;57.89;100415.22;5058219;28;1131;-62
2022/11/05 11:14:11;;;;;;;;;;;;;;;16.47;57.82;100404.34;5039758;28;1169;-61
2022/11/05 11:16:38;;;;;;;;;;;;;;;16.45;57.81;100413.97;5058242;28;1203;-63
2022/11/05 11:19:04;;;;;;;;;;;;;;;16.31;57.50;100411.81;5040296;28;1172;-62
2022/11/05 11:21:30;;;;;;;;;;;;;;;16.24;57.11;100408.53;5057878;28;1155;-61
2022/11/05 11:24:02;;;;;;;;;;;;;;;16.18;56.77;100404.19;5057698;28;1917;-62
2022/11/05 11:26:28;;;;;;;;;;;;;;;16.14;56.90;100408.59;5057238;28;1481;-60
2022/11/05 11:29:03;;;;;;;;;;;;;;;16.05;56.64;100400.94;5057799;28;1190;-63
2022/11/05 11:31:29;;;;;;;;;;;;;;;15.96;56.65;100404.53;5044796;28;1171;-62
2022/11/05 11:33:55;;;;;;;;;;;;;;;15.89;56.79;100405.66;5040346;28;1211;-60
2022/11/05 11:36:24;;;;;;;;;;;;;;;15.81;56.65;100399.91;5057663;28;1152;-63
2022/11/05 11:38:49;;;;;;;;;;;;;;;16.72;57.39;100400.66;5057318;28;2586;-62
2022/11/05 11:41:15;;;;;;;;;;;;;;;17.00;57.27;100397.47;5057470;28;1186;-62
2022/11/05 11:43:41;;;;;;;;;;;;;;;16.43;58.03;100403.25;5056838;28;1910;-63
2022/11/05 11:46:13;;;;;;;;;;;;;;;16.22;57.63;100394.31;5039678;28;1136;-61
2022/11/05 11:48:39;;;;;;;;;;;;;;;16.07;57.72;100401.50;5039549;28;1183;-61
2022/11/05 11:51:16;;;;;;;;;;;;;;;15.99;57.38;100396.59;5038975;28;1398;-61
2022/11/05 11:53:42;;;;;;;;;;;;;;;15.89;57.29;100391.94;5057859;28;1190;-62
2022/11/05 11:56:17;;;;;;;;;;;;;;;15.86;57.07;100395.22;5057064;28;1366;-62
2022/11/05 11:58:50;;;;;;;;;;;;;;;16.41;57.67;100406.28;5044566;28;1120;-60
2022/11/05 12:01:21;;;;;;;;;;;;;;;17.15;56.46;100391.03;5038843;28;1223;-61
2022/11/05 12:03:48;;;;;;;;;;;;;;;16.42;57.81;100391.47;5056867;28;1902;-63
2022/11/05 12:06:13;;;;;;;;;;;;;;;16.23;57.90;100399.50;5039168;28;1092;-63
2022/11/05 12:08:39;;;;;;;;;;;;;;;16.14;57.68;100398.44;5056374;28;2159;-62
2022/11/05 12:11:04;;;;;;;;;;;;;;;16.02;57.40;100401.50;5057073;28;1159;-62
2022/11/05 12:13:36;;;;;;;;;;;;;;;15.90;57.39;100395.50;5056778;28;1183;-61
2022/11/05 12:16:06;;;;;;;;;;;;;;;15.87;57.24;100387.84;5057876;28;1464;-60
2022/11/05 12:18:37;;;;;;;;;;;;;;;15.79;56.95;100396.59;5056957;28;1214;-62
2022/11/05 12:21:04;;;;;;;;;;;;;;;17.00;56.75;100398.31;5056924;28;1242;-62
2022/11/05 12:23:49;;;;;;;;;;;;;;;16.96;56.80;100393.66;5057100;28;1914;-63
2022/11/05 12:26:33;;;;;;;;;;;;;;;16.37;57.91;100399.72;5056464;28;1282;-64
2022/11/05 12:29:14;;;;;;;;;;;;;;;16.23;57.38;100399.50;5057032;28;1100;-64
2022/11/05 12:31:45;;;;;;;;;;;;;;;16.06;57.41;100410.81;5039294;28;1132;-62
2022/11/05 12:34:25;;;;;;;;;;;;;;;15.97;57.07;100401.50;5056655;28;1178;-62
2022/11/05 12:36:53;;;;;;;;;;;;;;;15.86;57.16;100400.69;5038857;28;1500;-61
2022/11/05 12:39:35;;;;;;;;;;;;;;;15.78;56.97;100406.75;5052201;28;1038;-62
2022/11/05 12:42:03;;;;;;;;;;;;;;;16.62;57.27;100416.34;5038783;28;1271;-61
2022/11/05 12:44:44;;;;;;;;;;;;;;;16.86;56.99;100411.00;5055988;28;1910;-60
2022/11/05 12:47:12;;;;;;;;;;;;;;;16.31;57.95;100411.00;5056474;28;1097;-62
2022/11/05 12:49:44;;;;;;;;;;;;;;;16.13;57.66;100409.69;5056201;28;1120;-60
2022/11/05 12:52:28;;;;;;;;;;;;;;;16.04;57.32;100406.72;5056171;28;1031;-63
2022/11/05 12:54:54;;;;;;;;;;;;;;;15.91;57.37;100403.44;5056412;28;1140;-60
2022/11/05 12:57:19;;;;;;;;;;;;;;;15.84;57.02;100413.06;5055328;28;1237;-60
2022/11/05 12:59:44;;;;;;;;;;;;;;;16.10;57.44;100413.00;5055828;28;1162;-60
2022/11/05 13:02:21;;;;;;;;;;;;;;;17.39;56.14;100410.34;5055190;28;1334;-60
2022/11/05 13:05:06;;;;;;;;;;;;;;;16.56;57.67;100410.06;5038417;28;1913;-59
2022/11/05 13:07:33;;;;;;;;;;;;;;;16.23;57.95;100409.66;5038225;28;2326;-59
2022/11/05 13:10:01;;;;;;;;;;;;;;;16.11;57.52;100407.22;5038150;28;1341;-62
2022/11/05 13:12:27;;;;;;;;;;;;;;;16.00;57.36;100411.91;5037703;28;1124;-61
2022/11/05 13:14:57;;;;;;;;;;;;;;;15.93;57.32;100405.09;5038223;28;1136;-59
2022/11/05 13:17:23;;;;;;;;;;;;;;;15.87;57.11;100407.84;5055524;28;1139;-59
2022/11/05 13:20:21;;;;;;;;;;;;;;;17.19;56.54;100417.66;5056231;28;1256;-60
2022/11/05 13:22:51;;;;;;;;;;;;;;;16.66;57.87;100414.69;5026447;28;1898;-58
2022/11/05 13:25:30;;;;;;;;;;;;;;;16.38;58.07;100411.50;5037910;28;1148;-59
2022/11/05 13:28:03;;;;;;;;;;;;;;;16.16;57.88;100414.59;5055743;28;1254;-61
2022/11/05 13:30:30;;;;;;;;;;;;;;;16.09;57.55;100414.94;5055873;28;1096;-61
2022/11/05 13:33:11;;;;;;;;;;;;;;;15.98;57.36;100418.81;5037844;28;1219;-61
2022/11/05 13:35:40;;;;;;;;;;;;;;;15.90;57.06;100418.25;5055768;28;1139;-60